首页
METAR-TAF:

METAR-TAF

机场 :

克拉克斯堡, 西維吉尼亞州, 美国

纬度: 39-18-00N, 经度: 080-13-29W, 海拔: 366米

当前天气观测

该预报发布于49分钟前的23:53 UTC
风速5节,风向西
温度 26°C
湿度 51%
气压 1017 hPa
能見度: 16.1公里

METAR: KCKB 252353Z 26005KT 10SM 26/15 A3002 RMK AO2 SLP149 T02610150 10283 20261 53004 $

时间: 20:42 (00:42 UTC)

预报

该预报发布于1小时和20分钟前的23:22 UTC
预报有效从26日的 00点(UTC)到 26日的 24点(UTC)
风速5节,风向西
能見度: 10公里
少量云层高于25000英尺
从 26日的 0300点(UTC)
风速3节,风向多变
能見度: 10公里
天空无云
碎片雾
从 26日的 1200点(UTC)
风速5节,风向南转西南
能見度: 10公里
天空无云

TAF: KCKB 252322Z 2600/2624 28005KT P6SM FEW250 FM260300 VRB03KT P6SM BCFG SKC FM261200 21005KT P6SM SKC

超过4000个机场的气象观测和天气预报(METAR&TAF报告)。

可查询的气象台以黄色和红色小点在地图上表示。

将鼠标移到小点上方,可查看气象台名称。

然后点击查看天气观测和预报。

如需切换地图:点击带黑十字的绿色按钮放大地图;点击带横线的绿色按钮缩小地图;或者点击绿色箭头查看邻近地区的地图。


METAR-TAF: